Time;durP1;ratioP1;P1;durP2;ratioP2;P2;SDS_P1;SDS_P2;PMS_P1;PMS_P2;Temp;Humidity;BMP_temperature;BMP_pressure;BME280_temperature;BME280_humidity;BME280_pressure;Samples;Min_cycle;Max_cycle;Signal;HPM_P1;HPM_P2
2024/03/05 00:01:45;;;;;;;30.73;18.57;;;2.50;99.90;;;;;;5011588;28;20685;-64
2024/03/05 00:04:15;;;;;;;29.07;19.17;;;2.50;99.90;;;;;;5012071;28;20218;-63
2024/03/05 00:06:42;;;;;;;32.63;19.93;;;2.50;99.90;;;;;;5010902;28;20221;-64
2024/03/05 00:09:11;;;;;;;31.87;19.47;;;2.50;99.90;;;;;;5012213;28;20565;-64
2024/03/05 00:11:39;;;;;;;37.40;19.97;;;2.50;99.90;;;;;;5015705;28;20652;-64
2024/03/05 00:14:07;;;;;;;37.13;21.00;;;2.50;99.90;;;;;;5014772;28;20675;-64
2024/03/05 00:16:35;;;;;;;36.27;21.23;;;2.50;99.90;;;;;;5011796;28;20222;-64
2024/03/05 00:19:03;;;;;;;36.33;21.33;;;2.50;99.90;;;;;;5015826;28;20350;-64
2024/03/05 00:21:33;;;;;;;37.23;20.60;;;2.50;99.90;;;;;;4993703;28;20223;-64
2024/03/05 00:24:01;;;;;;;33.87;21.30;;;2.50;99.90;;;;;;4979459;28;20239;-65
2024/03/05 00:26:30;;;;;;;38.03;22.27;;;2.50;99.90;;;;;;4985327;28;20202;-64
2024/03/05 00:29:02;;;;;;;39.77;22.20;;;2.50;99.90;;;;;;5006666;28;20190;-64
2024/03/05 00:31:30;;;;;;;38.07;23.13;;;2.50;99.90;;;;;;4995239;28;20218;-64
2024/03/05 00:33:58;;;;;;;37.07;22.37;;;2.50;99.90;;;;;;4998280;28;20214;-64
2024/03/05 00:36:26;;;;;;;35.47;21.90;;;2.50;99.90;;;;;;4994948;28;20218;-64
2024/03/05 00:38:56;;;;;;;37.60;23.37;;;2.50;99.90;;;;;;4997944;28;20226;-64
2024/03/05 00:41:24;;;;;;;35.37;21.77;;;2.50;99.90;;;;;;4997206;28;20527;-63
2024/03/05 00:43:53;;;;;;;39.97;23.33;;;2.50;99.90;;;;;;4995940;28;20199;-64
2024/03/05 00:46:21;;;;;;;38.37;22.23;;;2.50;99.90;;;;;;4999141;28;20236;-64
2024/03/05 00:48:50;;;;;;;39.87;22.30;;;2.50;99.90;;;;;;5012714;28;20407;-65
2024/03/05 00:51:18;;;;;;;38.03;23.63;;;2.50;99.90;;;;;;5008344;28;20214;-64
2024/03/05 00:53:47;;;;;;;41.00;23.37;;;2.50;99.90;;;;;;5003025;28;20670;-64
2024/03/05 00:56:16;;;;;;;46.03;25.80;;;2.50;99.90;;;;;;4993051;28;20301;-64
2024/03/05 00:58:45;;;;;;;43.43;25.63;;;2.40;99.90;;;;;;4991781;28;20221;-64
2024/03/05 01:01:13;;;;;;;45.10;24.67;;;2.40;99.90;;;;;;4996203;28;20339;-65
2024/03/05 01:03:41;;;;;;;41.73;24.83;;;2.40;99.90;;;;;;5012291;28;20229;-64
2024/03/05 01:06:09;;;;;;;44.17;23.80;;;2.40;99.90;;;;;;5005163;28;20233;-64
2024/03/05 01:08:37;;;;;;;42.03;25.00;;;2.30;99.90;;;;;;4996243;28;20233;-65
2024/03/05 01:11:07;;;;;;;40.53;24.83;;;2.20;99.90;;;;;;4995813;28;20191;-64
2024/03/05 01:13:37;;;;;;;43.43;24.50;;;2.20;99.90;;;;;;5032142;28;20225;-64
2024/03/05 01:16:06;;;;;;;47.23;24.43;;;2.20;99.90;;;;;;5010551;28;20221;-64
2024/03/05 01:18:36;;;;;;;44.17;24.83;;;2.20;99.90;;;;;;5014660;28;20220;-64
2024/03/05 01:21:06;;;;;;;41.57;24.90;;;2.20;99.90;;;;;;5011212;28;20222;-64
2024/03/05 01:23:34;;;;;;;41.60;25.03;;;2.20;99.90;;;;;;5016967;28;20194;-64
2024/03/05 01:26:03;;;;;;;41.47;24.13;;;2.20;99.90;;;;;;5023761;28;20614;-64
2024/03/05 01:28:31;;;;;;;40.67;24.10;;;2.10;99.90;;;;;;5015162;28;20222;-64
2024/03/05 01:31:02;;;;;;;43.60;24.13;;;2.10;99.90;;;;;;4997356;28;20226;-64
2024/03/05 01:33:30;;;;;;;40.70;23.33;;;2.10;99.90;;;;;;4990304;28;20226;-64
2024/03/05 01:35:58;;;;;;;39.97;23.17;;;2.00;99.90;;;;;;4983513;28;20253;-64
2024/03/05 01:38:27;;;;;;;42.90;24.47;;;2.00;99.90;;;;;;4995841;28;20211;-64
2024/03/05 01:40:55;;;;;;;41.33;24.37;;;2.00;99.90;;;;;;4988210;28;20201;-64
2024/03/05 01:43:24;;;;;;;41.20;24.43;;;2.00;99.90;;;;;;4996217;28;20222;-64
2024/03/05 01:45:53;;;;;;;41.27;23.50;;;1.90;99.90;;;;;;5014992;28;20256;-64
2024/03/05 01:48:23;;;;;;;44.57;24.30;;;1.90;99.90;;;;;;5004928;28;20222;-64
2024/03/05 01:50:51;;;;;;;42.23;23.17;;;1.90;99.90;;;;;;4996975;28;20733;-64
2024/03/05 01:53:20;;;;;;;35.33;22.13;;;1.90;99.90;;;;;;5009603;28;20641;-64
2024/03/05 01:55:53;;;;;;;37.90;23.03;;;1.90;99.90;;;;;;4992345;28;20591;-64
2024/03/05 01:58:22;;;;;;;41.70;22.17;;;1.80;99.90;;;;;;4995167;28;20237;-64
2024/03/05 02:00:51;;;;;;;45.43;23.67;;;1.80;99.90;;;;;;4983571;28;20237;-65
2024/03/05 02:03:22;;;;;;;42.03;23.13;;;1.80;99.90;;;;;;5001969;28;20605;-64
2024/03/05 02:05:53;;;;;;;43.10;22.97;;;1.80;99.90;;;;;;4995691;28;20701;-64
2024/03/05 02:08:22;;;;;;;43.30;21.93;;;1.80;99.90;;;;;;4989219;28;20566;-64
2024/03/05 02:10:50;;;;;;;43.73;23.20;;;1.70;99.90;;;;;;5013736;28;20218;-63
2024/03/05 02:13:18;;;;;;;37.17;21.60;;;1.70;99.90;;;;;;5021578;28;20222;-63
2024/03/05 02:15:48;;;;;;;42.77;22.67;;;1.60;99.90;;;;;;5026459;28;20221;-63
2024/03/05 02:18:16;;;;;;;36.53;21.60;;;1.70;99.90;;;;;;5022959;28;20576;-64
2024/03/05 02:20:46;;;;;;;37.77;22.70;;;1.70;99.90;;;;;;5017977;28;20222;-63
2024/03/05 02:23:16;;;;;;;39.33;22.40;;;1.60;99.90;;;;;;5013163;28;20213;-63
2024/03/05 02:25:45;;;;;;;43.43;21.57;;;1.60;99.90;;;;;;4995287;28;20219;-64
2024/03/05 02:28:14;;;;;;;35.63;21.90;;;1.60;99.90;;;;;;4994962;28;20705;-64
2024/03/05 02:30:42;;;;;;;37.43;21.13;;;1.60;99.90;;;;;;4995125;28;20691;-64
2024/03/05 02:33:13;;;;;;;36.60;21.70;;;1.50;99.90;;;;;;5001639;28;20312;-64
2024/03/05 02:35:41;;;;;;;33.33;21.00;;;1.50;99.90;;;;;;5013160;28;20281;-64
2024/03/05 02:38:09;;;;;;;37.83;21.50;;;1.60;99.90;;;;;;5009244;28;20210;-64
2024/03/05 02:40:40;;;;;;;39.00;21.67;;;1.60;99.90;;;;;;5013559;28;20698;-65
2024/03/05 02:43:08;;;;;;;37.43;20.97;;;1.60;99.90;;;;;;5006710;28;20222;-64
2024/03/05 02:45:36;;;;;;;37.83;21.97;;;1.60;99.90;;;;;;5013882;28;20233;-65
2024/03/05 02:48:06;;;;;;;36.73;20.23;;;1.50;99.90;;;;;;5014191;28;20225;-64
2024/03/05 02:50:34;;;;;;;35.03;20.70;;;1.60;99.90;;;;;;5014235;28;20243;-64
2024/03/05 02:56:29;;;;;;;40.27;20.97;;;1.60;99.90;;;;;;4989413;28;20318;-65
2024/03/05 02:58:57;;;;;;;38.77;22.80;;;1.70;99.90;;;;;;4994239;28;20217;-65
2024/03/05 03:01:26;;;;;;;36.70;21.50;;;1.80;99.90;;;;;;4992345;28;20732;-65
2024/03/05 03:03:54;;;;;;;36.53;21.17;;;1.80;99.90;;;;;;5006664;28;20228;-65
2024/03/05 03:06:22;;;;;;;37.30;22.53;;;1.80;99.90;;;;;;5019794;28;20233;-65
2024/03/05 03:08:50;;;;;;;42.03;22.03;;;1.90;99.90;;;;;;5013474;28;20283;-65
2024/03/05 03:11:19;;;;;;;42.43;22.60;;;1.90;99.90;;;;;;5014522;28;20280;-65
2024/03/05 03:13:51;;;;;;;38.80;23.03;;;2.00;99.90;;;;;;5011600;28;20229;-65
2024/03/05 03:16:19;;;;;;;40.10;23.17;;;2.10;99.90;;;;;;5002441;28;20234;-65
2024/03/05 03:18:48;;;;;;;37.40;23.43;;;2.10;99.90;;;;;;4993012;28;20555;-65
2024/03/05 03:21:16;;;;;;;36.87;21.67;;;2.20;99.90;;;;;;4987964;28;20221;-66
2024/03/05 03:23:45;;;;;;;34.67;20.80;;;2.20;99.90;;;;;;4998052;28;20717;-64
2024/03/05 03:26:13;;;;;;;40.87;22.00;;;2.30;99.90;;;;;;4997572;28;20274;-65
2024/03/05 03:28:41;;;;;;;41.60;22.43;;;2.30;99.90;;;;;;5011882;28;20250;-65
2024/03/05 03:31:14;;;;;;;41.27;21.83;;;2.30;99.90;;;;;;4996685;28;20702;-64
2024/03/05 03:33:42;;;;;;;40.07;22.87;;;2.40;99.90;;;;;;4996415;28;20265;-65
2024/03/05 03:36:11;;;;;;;38.27;21.63;;;2.40;99.90;;;;;;4993676;28;20223;-65
2024/03/05 03:38:39;;;;;;;36.63;21.20;;;2.50;99.90;;;;;;4997698;28;20187;-65
2024/03/05 03:41:08;;;;;;;37.83;21.20;;;2.60;99.90;;;;;;5001395;28;20221;-65
2024/03/05 03:43:36;;;;;;;44.93;23.33;;;2.70;99.90;;;;;;4999839;28;20245;-65
2024/03/05 03:46:05;;;;;;;37.87;22.70;;;2.80;99.90;;;;;;5000294;28;20631;-65
2024/03/05 03:48:37;;;;;;;38.37;22.23;;;2.80;99.90;;;;;;4983552;28;20559;-64
2024/03/05 03:51:07;;;;;;;36.93;22.67;;;2.90;99.90;;;;;;5003367;28;20245;-65
2024/03/05 03:53:36;;;;;;;39.83;22.93;;;3.00;99.90;;;;;;4998523;28;20194;-65
2024/03/05 03:56:05;;;;;;;37.77;22.30;;;3.10;99.90;;;;;;4989609;28;20225;-65
2024/03/05 03:58:33;;;;;;;40.97;23.17;;;3.10;99.90;;;;;;4998521;28;20280;-65
2024/03/05 04:01:02;;;;;;;38.40;22.30;;;3.10;99.90;;;;;;4994626;28;20232;-65
2024/03/05 04:03:31;;;;;;;39.07;22.83;;;3.20;99.90;;;;;;4995917;28;20298;-64
2024/03/05 04:06:00;;;;;;;38.60;22.83;;;3.30;99.90;;;;;;4999934;28;20221;-64
2024/03/05 04:08:30;;;;;;;38.67;22.50;;;3.30;99.90;;;;;;5003208;28;20304;-64
2024/03/05 04:10:59;;;;;;;38.33;21.10;;;3.40;99.90;;;;;;5000672;28;20190;-65
2024/03/05 04:13:28;;;;;;;37.37;22.03;;;3.40;99.90;;;;;;4992791;28;20215;-65
2024/03/05 04:15:56;;;;;;;42.60;21.57;;;3.40;99.90;;;;;;4992671;28;20297;-65
2024/03/05 04:18:24;;;;;;;34.63;20.30;;;3.50;99.90;;;;;;5010092;28;20241;-65
2024/03/05 04:20:53;;;;;;;32.23;20.53;;;3.50;99.90;;;;;;5013393;28;20226;-65
2024/03/05 04:23:23;;;;;;;29.60;19.60;;;3.50;99.90;;;;;;5008754;28;20198;-65
2024/03/05 04:25:57;;;;;;;32.37;19.27;;;3.60;99.90;;;;;;4997554;28;20217;-65
2024/03/05 04:28:26;;;;;;;33.60;19.63;;;3.60;99.90;;;;;;4987655;28;20735;-65
2024/03/05 04:30:57;;;;;;;31.63;19.90;;;3.60;99.90;;;;;;4993280;28;20218;-65
2024/03/05 04:33:28;;;;;;;36.87;21.07;;;3.60;99.90;;;;;;4994659;28;20731;-65
2024/03/05 04:35:56;;;;;;;31.93;19.17;;;3.60;99.90;;;;;;4996815;28;20226;-65
2024/03/05 04:38:27;;;;;;;31.90;19.57;;;3.70;99.90;;;;;;5000676;28;20641;-65
2024/03/05 04:40:56;;;;;;;34.43;19.73;;;3.70;99.90;;;;;;5005704;28;20229;-65
2024/03/05 04:43:27;;;;;;;28.30;19.67;;;3.70;99.90;;;;;;4997924;28;20222;-66
2024/03/05 04:45:56;;;;;;;28.00;18.10;;;3.70;99.90;;;;;;4995956;28;20274;-65
2024/03/05 04:48:24;;;;;;;33.10;18.20;;;3.80;99.90;;;;;;4995152;28;20230;-65
2024/03/05 04:50:55;;;;;;;28.50;17.27;;;3.80;99.90;;;;;;4992030;28;20314;-65
2024/03/05 04:53:23;;;;;;;25.60;17.20;;;3.80;99.90;;;;;;4994799;28;20278;-65
2024/03/05 04:55:54;;;;;;;22.10;16.13;;;3.90;99.90;;;;;;4985608;28;20201;-65
2024/03/05 04:58:23;;;;;;;23.63;15.67;;;3.90;99.90;;;;;;4997256;28;20223;-65
2024/03/05 05:00:51;;;;;;;27.93;16.17;;;3.90;99.90;;;;;;5010810;28;20214;-65
2024/03/05 05:03:20;;;;;;;26.07;15.67;;;3.90;99.90;;;;;;5012725;28;20246;-65
2024/03/05 05:05:48;;;;;;;26.80;16.33;;;3.90;99.90;;;;;;5018193;28;20738;-65
2024/03/05 05:08:19;;;;;;;25.67;15.73;;;4.00;99.90;;;;;;5003315;28;20227;-65
2024/03/05 05:10:47;;;;;;;25.47;15.77;;;4.00;99.90;;;;;;5002335;28;20221;-65
2024/03/05 05:13:17;;;;;;;25.27;15.40;;;4.00;99.90;;;;;;5004305;28;20230;-65
2024/03/05 05:15:46;;;;;;;23.60;14.27;;;4.00;99.90;;;;;;5017552;28;20233;-65
2024/03/05 05:18:15;;;;;;;25.93;15.57;;;4.00;99.90;;;;;;5011149;28;20245;-65
2024/03/05 05:20:44;;;;;;;21.80;15.00;;;4.00;99.90;;;;;;5012597;28;20776;-65
2024/03/05 05:23:12;;;;;;;22.63;14.00;;;4.10;99.90;;;;;;5016152;28;20205;-65
2024/03/05 05:25:42;;;;;;;23.10;14.63;;;4.10;99.90;;;;;;5019435;28;20221;-65
2024/03/05 05:28:11;;;;;;;20.93;13.77;;;4.10;99.90;;;;;;5005738;28;20264;-65
2024/03/05 05:30:41;;;;;;;22.53;14.20;;;4.10;99.90;;;;;;5036010;28;20216;-65
2024/03/05 05:33:09;;;;;;;21.97;12.77;;;4.10;99.90;;;;;;5016496;28;20218;-65
2024/03/05 05:35:37;;;;;;;20.70;12.97;;;4.00;99.90;;;;;;5018000;28;20650;-65
2024/03/05 05:38:08;;;;;;;20.47;12.90;;;4.00;99.90;;;;;;5019886;28;20209;-65
2024/03/05 05:40:37;;;;;;;19.13;11.97;;;4.00;99.90;;;;;;5014277;28;20588;-65
2024/03/05 05:43:08;;;;;;;19.87;12.70;;;4.00;99.90;;;;;;5014491;28;20312;-65
2024/03/05 05:45:37;;;;;;;22.03;12.83;;;4.00;99.90;;;;;;5015507;28;20333;-65
2024/03/05 05:48:23;;;;;;;18.80;13.10;;;4.00;99.90;;;;;;5027567;28;20231;-65
2024/03/05 05:50:58;;;;;;;21.43;13.13;;;4.00;99.90;;;;;;5025419;28;20809;-66
2024/03/05 05:53:27;;;;;;;19.13;13.33;;;4.00;99.90;;;;;;5016507;28;20218;-65
2024/03/05 05:55:55;;;;;;;19.07;13.00;;;4.00;99.90;;;;;;5015681;28;20198;-65
2024/03/05 05:58:25;;;;;;;19.80;13.13;;;4.00;99.90;;;;;;5014976;28;20213;-65
2024/03/05 06:00:54;;;;;;;20.10;13.60;;;4.00;99.90;;;;;;5018270;28;20252;-64
2024/03/05 06:03:24;;;;;;;28.23;13.40;;;4.00;99.90;;;;;;5013854;28;20218;-65
2024/03/05 06:05:52;;;;;;;21.87;13.60;;;4.00;99.90;;;;;;5013777;28;20221;-66
2024/03/05 06:08:21;;;;;;;22.10;13.47;;;4.00;99.90;;;;;;5017819;28;20287;-64
2024/03/05 06:10:49;;;;;;;19.07;12.70;;;4.00;99.90;;;;;;4993168;28;20238;-65
2024/03/05 06:13:17;;;;;;;17.00;12.70;;;4.00;99.90;;;;;;4995029;28;20250;-65
2024/03/05 06:15:48;;;;;;;21.90;12.90;;;4.00;99.90;;;;;;4992160;28;20225;-65
2024/03/05 06:18:16;;;;;;;18.20;12.33;;;4.00;99.90;;;;;;4998163;28;20682;-65
2024/03/05 06:20:48;;;;;;;16.97;12.47;;;4.10;99.90;;;;;;4994588;28;20226;-65
2024/03/05 06:23:16;;;;;;;19.30;12.37;;;4.10;99.90;;;;;;4987753;28;20219;-65
2024/03/05 06:25:46;;;;;;;20.80;12.67;;;4.10;99.90;;;;;;4994262;28;20352;-65
2024/03/05 06:28:14;;;;;;;18.90;12.20;;;4.10;99.90;;;;;;5004266;28;20224;-64
2024/03/05 06:30:46;;;;;;;16.10;11.57;;;4.20;99.90;;;;;;5000386;28;20222;-65
2024/03/05 06:33:14;;;;;;;22.17;12.50;;;4.20;99.90;;;;;;5008338;28;20302;-65
2024/03/05 06:35:42;;;;;;;21.13;12.43;;;4.20;99.90;;;;;;4994117;28;20238;-64
2024/03/05 06:38:12;;;;;;;24.23;12.87;;;4.30;99.90;;;;;;4989245;28;20201;-64
2024/03/05 06:40:41;;;;;;;17.83;11.60;;;4.30;99.90;;;;;;5012297;28;20312;-64
2024/03/05 06:43:15;;;;;;;20.30;12.07;;;4.40;99.90;;;;;;5011693;28;20229;-64
2024/03/05 06:45:46;;;;;;;18.57;12.00;;;4.40;99.90;;;;;;5010200;28;20221;-64
2024/03/05 06:48:22;;;;;;;21.90;12.17;;;4.50;99.90;;;;;;5013087;28;20234;-66
2024/03/05 06:50:57;;;;;;;18.33;11.50;;;4.50;99.90;;;;;;5013201;28;20320;-64
2024/03/05 06:58:58;;;;;;;16.43;10.83;;;4.70;99.90;;;;;;4994464;28;20216;-64
2024/03/05 07:01:31;;;;;;;16.73;10.77;;;4.70;99.90;;;;;;4993076;28;20222;-64
2024/03/05 07:04:05;;;;;;;17.23;10.60;;;4.80;99.90;;;;;;4984653;28;20249;-65
2024/03/05 07:06:34;;;;;;;17.20;11.23;;;4.90;99.90;;;;;;4994410;28;20227;-64
2024/03/05 07:09:04;;;;;;;17.13;10.80;;;4.90;99.90;;;;;;4992673;28;20288;-65
2024/03/05 07:11:33;;;;;;;16.57;11.17;;;4.90;99.90;;;;;;4998393;28;20238;-65
2024/03/05 07:14:02;;;;;;;14.87;11.23;;;5.00;99.90;;;;;;4990278;28;20215;-65
2024/03/05 07:16:32;;;;;;;17.07;11.30;;;4.90;99.90;;;;;;4998485;28;20222;-64
2024/03/05 07:19:01;;;;;;;23.27;12.87;;;5.00;99.90;;;;;;4993909;28;20231;-64
2024/03/05 07:21:30;;;;;;;19.33;11.77;;;5.00;99.90;;;;;;5000751;28;20310;-64
2024/03/05 07:23:58;;;;;;;16.77;11.30;;;5.00;99.90;;;;;;4991639;28;20246;-64
2024/03/05 07:26:31;;;;;;;21.20;11.43;;;5.10;99.90;;;;;;4993666;28;20289;-63
2024/03/05 07:29:00;;;;;;;18.50;11.23;;;5.20;99.90;;;;;;4992699;28;20203;-64
2024/03/05 07:31:28;;;;;;;18.70;11.43;;;5.20;99.90;;;;;;5008354;28;20234;-64
2024/03/05 07:33:58;;;;;;;17.93;11.93;;;5.20;99.90;;;;;;5019908;28;20213;-64
2024/03/05 07:36:26;;;;;;;17.37;11.87;;;5.30;99.90;;;;;;5006153;28;20301;-64
2024/03/05 07:38:54;;;;;;;15.87;11.30;;;5.30;99.90;;;;;;4993486;28;20685;-64
2024/03/05 07:41:23;;;;;;;16.00;11.00;;;5.40;99.90;;;;;;4998720;28;20198;-62
2024/03/05 07:44:03;;;;;;;15.20;11.00;;;5.40;99.90;;;;;;4994419;28;20190;-64
2024/03/05 07:46:33;;;;;;;18.50;11.50;;;5.50;99.90;;;;;;4996403;28;20215;-64
2024/03/05 07:49:02;;;;;;;18.77;11.37;;;5.60;99.90;;;;;;4991310;28;20293;-64
2024/03/05 07:51:31;;;;;;;17.10;11.00;;;5.70;99.90;;;;;;4992026;28;20223;-64
2024/03/05 07:54:12;;;;;;;17.10;10.33;;;5.80;99.90;;;;;;4990327;28;20224;-64
2024/03/05 07:56:41;;;;;;;14.17;9.80;;;5.80;99.90;;;;;;4989152;28;20238;-65
2024/03/05 07:59:11;;;;;;;13.00;9.50;;;6.00;99.90;;;;;;4994909;28;20605;-64
2024/03/05 08:01:40;;;;;;;13.20;9.10;;;6.10;99.90;;;;;;4989691;28;21045;-64
2024/03/05 08:04:09;;;;;;;12.90;8.97;;;6.20;99.90;;;;;;4994794;28;20704;-64
2024/03/05 08:06:37;;;;;;;13.43;9.17;;;6.20;99.90;;;;;;4993473;28;20269;-65
2024/03/05 08:09:06;;;;;;;13.70;8.63;;;6.30;99.90;;;;;;4987514;28;20239;-64
2024/03/05 08:11:35;;;;;;;12.67;8.33;;;6.40;99.90;;;;;;4995211;28;20191;-65
2024/03/05 08:14:07;;;;;;;12.93;8.73;;;6.40;99.90;;;;;;4991555;28;20210;-64
2024/03/05 08:16:38;;;;;;;18.37;9.00;;;6.50;99.90;;;;;;4991616;28;20276;-64
2024/03/05 08:19:07;;;;;;;20.37;9.23;;;6.60;99.90;;;;;;4987741;28;20218;-65
2024/03/05 08:21:36;;;;;;;11.90;8.50;;;6.70;99.90;;;;;;4991512;28;20225;-64
2024/03/05 08:24:05;;;;;;;12.47;8.63;;;6.80;99.90;;;;;;4991730;28;20226;-64
2024/03/05 08:26:34;;;;;;;18.43;8.43;;;6.80;99.90;;;;;;4997999;28;20199;-64
2024/03/05 08:29:03;;;;;;;11.77;8.23;;;6.90;99.90;;;;;;4998864;28;20234;-64
2024/03/05 08:31:32;;;;;;;14.03;7.73;;;7.00;99.90;;;;;;4994832;28;20225;-64
2024/03/05 08:34:04;;;;;;;17.17;8.40;;;7.00;99.90;;;;;;4994829;28;20230;-65
2024/03/05 08:36:36;;;;;;;13.00;7.93;;;7.10;99.90;;;;;;4996266;28;20273;-65
2024/03/05 08:39:15;;;;;;;15.80;7.60;;;7.20;99.90;;;;;;4989130;28;20249;-64
2024/03/05 08:41:46;;;;;;;8.40;6.83;;;7.30;99.90;;;;;;4995031;28;20222;-65
2024/03/05 08:44:15;;;;;;;14.23;7.50;;;7.30;99.90;;;;;;4991922;28;20642;-64
2024/03/05 08:46:44;;;;;;;15.77;7.97;;;7.40;99.90;;;;;;4996281;28;20221;-64
2024/03/05 08:49:14;;;;;;;9.63;6.47;;;7.40;99.90;;;;;;4992125;28;20705;-64
2024/03/05 08:51:42;;;;;;;10.17;6.83;;;7.50;99.90;;;;;;4993080;28;20726;-64
2024/03/05 08:54:10;;;;;;;11.87;6.83;;;7.60;99.90;;;;;;4996015;28;20649;-64
2024/03/05 08:56:41;;;;;;;7.37;5.97;;;7.70;99.90;;;;;;4993409;28;20211;-64
2024/03/05 08:59:09;;;;;;;7.07;5.60;;;7.70;99.90;;;;;;4989854;28;20654;-64
2024/03/05 09:01:38;;;;;;;6.73;6.03;;;7.60;99.90;;;;;;4988655;28;20218;-64
2024/03/05 09:04:09;;;;;;;9.60;5.83;;;7.50;99.90;;;;;;4998774;28;20284;-64
2024/03/05 09:06:40;;;;;;;6.47;5.67;;;7.50;99.90;;;;;;4999804;28;20227;-64
2024/03/05 09:09:11;;;;;;;7.57;5.93;;;7.50;99.90;;;;;;5000186;28;20697;-64
2024/03/05 09:11:39;;;;;;;5.23;4.83;;;7.40;99.90;;;;;;4995413;28;20202;-65
2024/03/05 09:14:08;;;;;;;7.53;5.70;;;7.50;99.90;;;;;;4999705;28;20262;-65
2024/03/05 09:16:37;;;;;;;6.10;5.50;;;7.40;99.90;;;;;;4999221;28;20225;-64
2024/03/05 09:19:06;;;;;;;7.00;5.43;;;7.40;99.90;;;;;;4994359;28;20230;-64
2024/03/05 09:21:35;;;;;;;7.67;5.57;;;7.50;99.90;;;;;;4995978;28;20222;-65
2024/03/05 09:24:06;;;;;;;7.63;5.23;;;7.50;99.90;;;;;;4999325;28;20601;-65
2024/03/05 09:26:35;;;;;;;7.67;5.80;;;7.50;99.90;;;;;;4995119;28;20277;-65
2024/03/05 09:29:03;;;;;;;7.63;5.50;;;7.50;99.90;;;;;;4995204;28;20199;-65
2024/03/05 09:31:32;;;;;;;5.80;5.30;;;7.50;99.90;;;;;;4997672;28;20229;-65
2024/03/05 09:34:01;;;;;;;6.67;5.10;;;7.50;99.90;;;;;;4995187;28;20223;-66
2024/03/05 09:36:29;;;;;;;6.63;5.47;;;7.50;99.90;;;;;;5010326;28;20640;-65
2024/03/05 09:38:58;;;;;;;8.30;5.33;;;7.40;99.90;;;;;;4997052;28;20567;-65
2024/03/05 09:41:30;;;;;;;8.57;5.40;;;7.40;99.90;;;;;;5001989;28;20194;-65
2024/03/05 09:44:01;;;;;;;7.43;5.30;;;7.30;99.90;;;;;;5002312;28;20210;-65
2024/03/05 09:46:32;;;;;;;8.80;5.20;;;7.40;99.90;;;;;;4995763;28;20566;-65
2024/03/05 09:49:00;;;;;;;6.50;5.20;;;7.40;99.90;;;;;;4992970;28;20273;-65
2024/03/05 09:51:43;;;;;;;5.83;4.83;;;7.50;99.90;;;;;;4989753;28;20218;-65
2024/03/05 09:54:11;;;;;;;6.47;5.23;;;7.40;99.90;;;;;;4992230;28;20316;-65
2024/03/05 09:56:44;;;;;;;10.43;5.73;;;7.30;99.90;;;;;;5001605;28;20628;-65
2024/03/05 09:59:14;;;;;;;8.20;5.40;;;7.30;99.90;;;;;;4995074;28;20195;-65
2024/03/05 10:01:45;;;;;;;5.70;5.10;;;7.40;99.90;;;;;;4998160;28;20226;-65
2024/03/05 10:04:16;;;;;;;9.47;4.77;;;7.40;99.90;;;;;;4995302;28;20305;-65
2024/03/05 10:06:46;;;;;;;9.90;5.40;;;7.40;99.90;;;;;;4997677;28;20241;-65
2024/03/05 10:09:15;;;;;;;5.80;5.20;;;7.30;99.90;;;;;;4991130;28;20234;-65
2024/03/05 10:11:45;;;;;;;6.67;5.07;;;7.40;99.90;;;;;;4996240;28;20260;-65
2024/03/05 10:14:13;;;;;;;7.00;5.60;;;7.40;99.90;;;;;;4998084;28;20654;-65
2024/03/05 10:16:44;;;;;;;5.93;5.33;;;7.40;99.90;;;;;;4997918;28;20269;-65
2024/03/05 10:19:13;;;;;;;6.13;5.50;;;7.50;99.90;;;;;;4994425;28;20310;-65
2024/03/05 10:21:42;;;;;;;6.37;5.33;;;7.50;99.90;;;;;;5000722;28;20231;-65
2024/03/05 10:24:12;;;;;;;5.80;5.20;;;7.50;99.90;;;;;;4996924;28;20246;-65
2024/03/05 10:26:41;;;;;;;6.77;5.07;;;7.50;99.90;;;;;;4993375;28;20206;-65
2024/03/05 10:29:11;;;;;;;8.50;5.30;;;7.50;99.90;;;;;;5000627;28;20198;-65
2024/03/05 10:31:42;;;;;;;7.90;6.00;;;7.50;99.90;;;;;;4997011;28;20322;-66
2024/03/05 10:34:14;;;;;;;10.60;6.37;;;7.60;99.90;;;;;;4990576;28;20218;-66
2024/03/05 10:36:43;;;;;;;11.93;6.67;;;7.50;99.90;;;;;;4998921;28;20220;-65
2024/03/05 10:39:12;;;;;;;6.73;6.03;;;7.50;99.90;;;;;;5000095;28;20233;-66
2024/03/05 10:41:41;;;;;;;8.33;6.20;;;7.50;99.90;;;;;;5000701;28;20187;-66
2024/03/05 10:44:21;;;;;;;7.20;6.23;;;7.50;99.90;;;;;;5000162;28;20213;-65
2024/03/05 10:46:52;;;;;;;10.37;6.63;;;7.60;99.90;;;;;;4995725;28;20223;-65
2024/03/05 10:49:22;;;;;;;12.73;7.53;;;7.50;99.90;;;;;;4992957;28;20309;-66
2024/03/05 10:51:53;;;;;;;11.30;7.30;;;7.50;99.90;;;;;;5001207;28;20221;-65
2024/03/05 10:54:23;;;;;;;14.37;8.00;;;7.50;99.90;;;;;;4989828;28;20233;-66
2024/03/05 10:56:52;;;;;;;11.13;7.33;;;7.50;99.90;;;;;;4996673;28;20760;-66
2024/03/05 10:59:33;;;;;;;12.27;7.63;;;7.50;99.90;;;;;;5024051;28;20289;-65
2024/03/05 11:02:03;;;;;;;8.63;7.50;;;7.50;99.90;;;;;;5013616;28;20677;-66
2024/03/05 11:04:33;;;;;;;8.60;6.77;;;7.50;99.90;;;;;;5018544;28;20276;-66
2024/03/05 11:07:05;;;;;;;9.73;7.23;;;7.50;99.90;;;;;;5008954;28;20658;-65
2024/03/05 11:09:36;;;;;;;8.47;7.37;;;7.50;99.90;;;;;;5009935;28;20559;-65
2024/03/05 11:12:09;;;;;;;10.00;7.23;;;7.60;99.90;;;;;;5016953;28;20225;-65
2024/03/05 11:14:39;;;;;;;10.53;7.70;;;7.60;99.90;;;;;;5015087;28;20229;-65
2024/03/05 11:17:11;;;;;;;9.43;7.67;;;7.70;99.90;;;;;;5012307;28;20318;-66
2024/03/05 11:19:43;;;;;;;11.13;7.87;;;7.80;99.90;;;;;;5014657;28;20222;-66
2024/03/05 11:22:23;;;;;;;12.53;8.10;;;8.00;99.90;;;;;;5013590;28;20284;-66
2024/03/05 11:24:56;;;;;;;15.40;7.00;;;8.10;99.90;;;;;;5015551;28;20234;-65
2024/03/05 11:27:25;;;;;;;13.20;8.27;;;8.00;99.90;;;;;;5010250;28;20287;-66
2024/03/05 11:30:11;;;;;;;9.97;7.43;;;8.00;99.90;;;;;;5015150;28;20232;-65
2024/03/05 11:32:40;;;;;;;8.17;7.37;;;8.00;99.90;;;;;;5016721;28;20210;-65
2024/03/05 11:35:11;;;;;;;11.73;8.10;;;8.00;99.90;;;;;;5015761;28;20189;-65
2024/03/05 11:37:48;;;;;;;12.30;7.17;;;8.30;99.90;;;;;;5005278;28;20241;-65
2024/03/05 11:40:18;;;;;;;10.50;7.43;;;8.40;99.90;;;;;;5007545;28;20607;-65
2024/03/05 11:42:47;;;;;;;10.13;7.40;;;8.50;99.90;;;;;;5010731;28;20620;-65
2024/03/05 11:45:44;;;;;;;8.20;7.00;;;8.60;99.90;;;;;;5011848;28;20253;-65
2024/03/05 11:48:14;;;;;;;11.80;7.60;;;8.60;99.90;;;;;;5011964;28;20440;-66
2024/03/05 11:50:43;;;;;;;8.20;7.07;;;8.70;99.90;;;;;;5012505;28;20312;-65
2024/03/05 11:53:11;;;;;;;10.07;6.50;;;8.60;99.90;;;;;;5018014;28;20208;-66
2024/03/05 11:55:41;;;;;;;9.23;6.20;;;8.60;99.90;;;;;;5012826;28;20693;-65
2024/03/05 11:58:10;;;;;;;6.43;5.93;;;8.60;99.90;;;;;;5008482;28;20210;-65
2024/03/05 12:00:39;;;;;;;10.83;6.20;;;8.40;99.90;;;;;;5011764;28;20232;-65
2024/03/05 12:03:10;;;;;;;8.23;6.00;;;8.40;99.90;;;;;;5014404;28;20237;-66
2024/03/05 12:05:44;;;;;;;8.07;6.03;;;8.40;99.90;;;;;;5011927;28;20206;-65
2024/03/05 12:08:17;;;;;;;8.30;6.17;;;8.30;99.90;;;;;;5007599;28;20328;-65
2024/03/05 12:10:49;;;;;;;8.93;6.67;;;8.50;99.90;;;;;;5013629;28;20217;-65
2024/03/05 12:13:19;;;;;;;9.43;7.10;;;8.70;99.90;;;;;;5008959;28;20224;-66
2024/03/05 12:15:48;;;;;;;10.17;6.73;;;9.00;99.90;;;;;;5011031;28;20777;-65
2024/03/05 12:18:17;;;;;;;7.27;5.90;;;9.30;99.90;;;;;;5010052;28;20224;-65
2024/03/05 12:20:47;;;;;;;10.90;6.33;;;9.40;99.90;;;;;;5011553;28;20325;-65
2024/03/05 12:23:17;;;;;;;8.20;6.20;;;9.60;99.90;;;;;;5012848;28;20255;-65
2024/03/05 12:26:05;;;;;;;8.70;5.83;;;9.70;99.90;;;;;;4989152;28;20226;-65
2024/03/05 12:28:36;;;;;;;6.27;4.90;;;9.80;99.90;;;;;;4993451;28;20225;-65
2024/03/05 12:31:05;;;;;;;13.83;5.20;;;9.80;99.90;;;;;;4996999;28;20222;-66
2024/03/05 12:33:35;;;;;;;5.10;4.60;;;9.70;99.90;;;;;;5000886;28;20232;-65
2024/03/05 12:36:05;;;;;;;10.37;4.63;;;9.70;99.90;;;;;;4999125;28;20685;-65
2024/03/05 12:38:33;;;;;;;5.13;3.70;;;9.70;99.90;;;;;;4992718;28;20658;-65
2024/03/05 12:41:02;;;;;;;8.50;4.13;;;9.70;99.90;;;;;;4998559;28;20209;-65
2024/03/05 12:43:30;;;;;;;4.07;3.60;;;9.60;99.90;;;;;;4994736;28;20629;-65
2024/03/05 12:46:02;;;;;;;6.43;3.90;;;9.70;99.90;;;;;;4996913;28;20313;-65
2024/03/05 12:48:31;;;;;;;6.60;3.27;;;9.90;99.90;;;;;;4999703;28;20222;-65
2024/03/05 12:51:03;;;;;;;7.13;3.60;;;9.90;99.90;;;;;;5006049;28;20694;-65
2024/03/05 12:53:31;;;;;;;5.07;3.47;;;10.10;99.90;;;;;;4997953;28;20550;-65
2024/03/05 12:56:01;;;;;;;10.90;4.03;;;10.10;99.90;;;;;;5002157;28;20186;-66
2024/03/05 12:58:40;;;;;;;6.93;3.23;;;10.20;99.90;;;;;;5002314;28;20304;-65
2024/03/05 13:01:10;;;;;;;9.13;3.40;;;10.10;99.90;;;;;;4996204;28;20226;-65
2024/03/05 13:03:39;;;;;;;6.17;3.70;;;10.10;99.90;;;;;;4992989;28;20586;-65
2024/03/05 13:06:08;;;;;;;4.03;3.13;;;10.00;99.90;;;;;;4995659;28;20297;-65